sensor_id;sensor_type;location;lat;lon;timestamp;P1;durP1;ratioP1;P2;durP2;ratioP2
74965;SDS011;63522;47.928;21.042;2022-09-14T18:36:32;7.70;;;3.70;;
74965;SDS011;63522;47.928;21.042;2022-09-14T19:12:59;4.80;;;3.20;;
74965;SDS011;63522;47.928;21.042;2022-09-14T19:21:42;4.50;;;2.60;;
74965;SDS011;63522;47.928;21.042;2022-09-14T19:24:11;6.10;;;3.40;;
74965;SDS011;63522;47.928;21.042;2022-09-14T19:29:50;4.90;;;2.90;;
74965;SDS011;63522;47.928;21.042;2022-09-14T19:32:35;4.40;;;2.50;;
74965;SDS011;63522;47.928;21.042;2022-09-14T19:35:32;7.00;;;3.10;;
74965;SDS011;63522;47.928;21.042;2022-09-14T19:38:01;5.10;;;2.80;;
74965;SDS011;63522;47.928;21.042;2022-09-14T19:40:36;6.30;;;2.90;;
74965;SDS011;63522;47.928;21.042;2022-09-14T19:43:01;4.20;;;2.50;;
74965;SDS011;63522;47.928;21.042;2022-09-14T19:45:48;5.20;;;2.60;;
74965;SDS011;63522;47.928;21.042;2022-09-14T19:51:00;6.10;;;2.80;;
74965;SDS011;63522;47.928;21.042;2022-09-14T19:53:28;5.00;;;2.50;;
74965;SDS011;63522;47.928;21.042;2022-09-14T19:55:58;4.80;;;2.30;;
74965;SDS011;63522;47.928;21.042;2022-09-14T19:58:28;4.30;;;2.40;;
74965;SDS011;63522;47.928;21.042;2022-09-14T20:00:54;6.40;;;2.60;;
74965;SDS011;63522;47.928;21.042;2022-09-14T20:03:21;5.00;;;2.50;;
74965;SDS011;63522;47.928;21.042;2022-09-14T20:05:56;5.70;;;2.50;;
74965;SDS011;63522;47.928;21.042;2022-09-14T20:08:55;5.30;;;3.10;;
74965;SDS011;63522;47.928;21.042;2022-09-14T20:11:28;4.10;;;2.30;;
74965;SDS011;63522;47.928;21.042;2022-09-14T20:14:05;5.10;;;3.10;;
74965;SDS011;63522;47.928;21.042;2022-09-14T20:16:36;3.90;;;2.60;;
74965;SDS011;63522;47.928;21.042;2022-09-14T20:19:35;6.30;;;4.00;;
74965;SDS011;63522;47.928;21.042;2022-09-14T20:22:24;6.70;;;5.20;;
74965;SDS011;63522;47.928;21.042;2022-09-14T20:24:49;7.20;;;4.90;;
74965;SDS011;63522;47.928;21.042;2022-09-14T20:27:17;8.30;;;5.20;;
74965;SDS011;63522;47.928;21.042;2022-09-14T20:29:46;7.80;;;5.80;;
74965;SDS011;63522;47.928;21.042;2022-09-14T20:32:12;7.50;;;5.60;;
74965;SDS011;63522;47.928;21.042;2022-09-14T20:34:47;10.40;;;7.00;;
74965;SDS011;63522;47.928;21.042;2022-09-14T20:37:36;10.50;;;7.30;;
74965;SDS011;63522;47.928;21.042;2022-09-14T20:40:07;8.20;;;6.00;;
74965;SDS011;63522;47.928;21.042;2022-09-14T20:42:34;9.20;;;6.50;;
74965;SDS011;63522;47.928;21.042;2022-09-14T20:45:02;9.80;;;7.20;;
74965;SDS011;63522;47.928;21.042;2022-09-14T20:47:28;8.80;;;6.60;;
74965;SDS011;63522;47.928;21.042;2022-09-14T20:49:54;9.60;;;7.00;;
74965;SDS011;63522;47.928;21.042;2022-09-14T20:52:22;10.00;;;7.00;;
74965;SDS011;63522;47.928;21.042;2022-09-14T20:54:50;8.90;;;6.70;;
74965;SDS011;63522;47.928;21.042;2022-09-14T20:57:16;8.90;;;6.50;;
74965;SDS011;63522;47.928;21.042;2022-09-14T20:59:44;9.30;;;6.80;;
74965;SDS011;63522;47.928;21.042;2022-09-14T21:02:15;8.00;;;6.30;;
74965;SDS011;63522;47.928;21.042;2022-09-14T21:04:44;8.50;;;7.00;;
74965;SDS011;63522;47.928;21.042;2022-09-14T21:07:14;10.00;;;6.60;;
74965;SDS011;63522;47.928;21.042;2022-09-14T21:09:41;7.90;;;6.80;;
74965;SDS011;63522;47.928;21.042;2022-09-14T21:12:10;9.20;;;7.40;;
74965;SDS011;63522;47.928;21.042;2022-09-14T21:14:39;8.60;;;6.40;;
74965;SDS011;63522;47.928;21.042;2022-09-14T21:17:12;8.10;;;6.40;;
74965;SDS011;63522;47.928;21.042;2022-09-14T21:19:43;7.90;;;6.30;;
74965;SDS011;63522;47.928;21.042;2022-09-14T21:22:09;9.10;;;6.50;;
74965;SDS011;63522;47.928;21.042;2022-09-14T21:34:17;8.10;;;6.30;;
74965;SDS011;63522;47.928;21.042;2022-09-14T21:36:54;8.20;;;6.00;;
74965;SDS011;63522;47.928;21.042;2022-09-14T21:39:23;7.40;;;5.80;;
74965;SDS011;63522;47.928;21.042;2022-09-14T21:49:03;7.60;;;6.40;;
74965;SDS011;63522;47.928;21.042;2022-09-14T21:52:32;8.20;;;6.60;;
74965;SDS011;63522;47.928;21.042;2022-09-14T22:01:30;7.60;;;5.60;;
74965;SDS011;63522;47.928;21.042;2022-09-14T22:03:55;7.00;;;5.70;;
74965;SDS011;63522;47.928;21.042;2022-09-14T22:06:24;6.20;;;5.10;;
74965;SDS011;63522;47.928;21.042;2022-09-14T22:09:04;6.50;;;5.40;;
74965;SDS011;63522;47.928;21.042;2022-09-14T22:11:34;6.80;;;5.90;;
74965;SDS011;63522;47.928;21.042;2022-09-14T22:14:13;6.40;;;5.40;;
74965;SDS011;63522;47.928;21.042;2022-09-14T22:16:51;5.90;;;4.90;;
74965;SDS011;63522;47.928;21.042;2022-09-14T22:19:24;6.10;;;4.80;;
74965;SDS011;63522;47.928;21.042;2022-09-14T22:21:55;7.50;;;5.80;;
74965;SDS011;63522;47.928;21.042;2022-09-14T22:27:32;7.20;;;5.40;;
74965;SDS011;63522;47.928;21.042;2022-09-14T22:33:01;7.20;;;5.60;;
74965;SDS011;63522;47.928;21.042;2022-09-14T22:46:07;7.60;;;5.70;;
74965;SDS011;63522;47.928;21.042;2022-09-14T22:52:22;5.70;;;4.70;;
74965;SDS011;63522;47.928;21.042;2022-09-14T22:54:53;6.50;;;5.10;;
74965;SDS011;63522;47.928;21.042;2022-09-14T22:57:40;6.80;;;5.40;;
74965;SDS011;63522;47.928;21.042;2022-09-14T23:03:31;6.10;;;4.90;;
74965;SDS011;63522;47.928;21.042;2022-09-14T23:06:03;6.10;;;4.60;;
74965;SDS011;63522;47.928;21.042;2022-09-14T23:08:30;5.50;;;4.30;;
74965;SDS011;63522;47.928;21.042;2022-09-14T23:11:06;5.10;;;4.50;;
74965;SDS011;63522;47.928;21.042;2022-09-14T23:13:35;5.90;;;5.00;;
74965;SDS011;63522;47.928;21.042;2022-09-14T23:16:09;5.60;;;4.70;;
74965;SDS011;63522;47.928;21.042;2022-09-14T23:18:43;6.20;;;4.60;;
74965;SDS011;63522;47.928;21.042;2022-09-14T23:21:14;6.00;;;4.80;;
74965;SDS011;63522;47.928;21.042;2022-09-14T23:23:39;6.10;;;4.70;;
74965;SDS011;63522;47.928;21.042;2022-09-14T23:26:06;5.20;;;4.70;;
74965;SDS011;63522;47.928;21.042;2022-09-14T23:28:34;6.40;;;4.50;;
74965;SDS011;63522;47.928;21.042;2022-09-14T23:31:01;5.70;;;4.30;;
74965;SDS011;63522;47.928;21.042;2022-09-14T23:33:27;5.80;;;4.60;;
74965;SDS011;63522;47.928;21.042;2022-09-14T23:35:53;5.30;;;4.30;;
74965;SDS011;63522;47.928;21.042;2022-09-14T23:38:19;5.60;;;5.00;;
74965;SDS011;63522;47.928;21.042;2022-09-14T23:40:45;6.10;;;4.60;;
74965;SDS011;63522;47.928;21.042;2022-09-14T23:43:14;6.00;;;4.20;;
74965;SDS011;63522;47.928;21.042;2022-09-14T23:45:44;5.90;;;5.00;;
74965;SDS011;63522;47.928;21.042;2022-09-14T23:48:11;5.40;;;4.20;;
74965;SDS011;63522;47.928;21.042;2022-09-14T23:50:37;5.40;;;4.30;;
74965;SDS011;63522;47.928;21.042;2022-09-14T23:53:04;4.80;;;4.00;;
74965;SDS011;63522;47.928;21.042;2022-09-14T23:55:30;6.30;;;4.80;;
74965;SDS011;63522;47.928;21.042;2022-09-14T23:57:56;5.40;;;3.90;;
